Open Text Pre-Tax Profit Margin 2006-2021 | OTEX

Current and historical pre-tax profit margin for Open Text (OTEX) from 2006 to 2021. Pre-tax profit margin can be defined as earnings before taxes as a portion of total revenue. Open Text pre-tax profit margin for the three months ending June 30, 2021 was .
Open Text Pre-Tax Profit Margin Historical Data
Date TTM Revenue TTM Pre-Tax Income Pre-Tax Margin
2021-06-30 $3.39B $0.65B 19.19%
2021-03-31 $3.32B $0.53B 15.93%
2020-12-31 $3.30B $0.44B 13.36%
2020-09-30 $3.22B $0.39B 12.21%
2020-06-30 $3.11B $0.35B 11.09%
2020-03-31 $3.03B $0.42B 13.69%
2019-12-31 $2.94B $0.49B 16.52%
2019-09-30 $2.90B $0.47B 16.29%
2019-06-30 $2.87B $0.44B 15.34%
2019-03-31 $2.88B $0.42B 14.50%
2018-12-31 $2.84B $0.39B 13.76%
2018-09-30 $2.84B $0.39B 13.66%
2018-06-30 $2.82B $0.39B 13.71%
2018-03-31 $2.73B $0.37B 13.43%
2017-12-31 $2.63B $0.32B 12.23%
2017-09-30 $2.44B $0.26B 10.65%
2017-06-30 $2.29B $0.25B 10.86%
2017-03-31 $2.11B $0.24B 11.17%
2016-12-31 $1.96B $0.28B 14.03%
2016-09-30 $1.88B $0.29B 15.46%
2016-06-30 $1.83B $0.29B 15.95%
2016-03-31 $1.82B $0.28B 15.57%
2015-12-31 $1.83B $0.24B 12.89%
2015-09-30 $1.83B $0.24B 12.92%
2015-06-30 $1.85B $0.27B 14.36%
2015-03-31 $1.86B $0.30B 16.04%
2014-12-31 $1.86B $0.33B 17.86%
2014-09-30 $1.76B $0.31B 17.61%
2014-06-30 $1.63B $0.28B 17.05%
2014-03-31 $1.48B $0.22B 14.88%
2013-12-31 $1.37B $0.20B 14.42%
2013-09-30 $1.36B $0.19B 14.11%
2013-06-30 $1.36B $0.18B 13.06%
2013-03-31 $1.32B $0.17B 12.56%
2012-12-31 $1.28B $0.15B 11.76%
2012-09-30 $1.25B $0.14B 11.24%
2012-06-30 $1.21B $0.14B 11.43%
2012-03-31 $1.19B $0.14B 11.89%
2011-12-31 $1.16B $0.15B 12.96%
2011-09-30 $1.10B $0.14B 12.69%
2011-06-30 $1.03B $0.14B 13.28%
2011-03-31 $0.99B $0.14B 14.29%
2010-12-31 $0.94B $0.13B 13.77%
2010-09-30 $0.92B $0.12B 12.75%
2010-06-30 $0.91B $0.09B 9.98%
2010-03-31 $0.88B $0.08B 9.60%
2009-12-31 $0.85B $0.10B 11.24%
2009-09-30 $0.81B $0.07B 7.99%
2009-06-30 $0.79B $0.08B 10.31%
2009-03-31 $0.78B $0.09B 11.75%
2008-12-31 $0.77B $0.07B 9.35%
2008-09-30 $0.75B $0.09B 11.54%
2008-06-30 $0.73B $0.08B 10.47%
2008-03-31 $0.70B $0.05B 6.85%
2007-12-31 $0.68B $0.04B 6.49%
2007-09-30 $0.66B $0.03B 4.86%
2007-06-30 $0.60B $0.03B 5.55%
2007-03-31 $0.53B $0.03B 6.10%
2006-12-31 $0.47B $0.04B 7.66%
2006-09-30 $0.42B $0.04B 9.33%
2006-06-30 $0.41B $0.01B 2.44%
2006-03-31 $0.41B $0.01B 1.45%
2005-12-31 $0.42B $0.00B 0.48%
Sector Industry Market Cap Revenue
Computer and Technology Computer Software $13.691B $3.386B
Open Text Corporation is engaged in development of innovative intranet, extranet and e-Business applications. Since creating one of the first search engines to index the World Wide Web, the company has remained at the forefront of Internet-based technologies. Open Text solutions allow individuals, teams, organizations, and global trading communities to collaborate on projects, share ideas and accelerate innovation to the fastest possible speed. Open Text Corporation is headquartered in Waterloo, Canada.
Stock Name Country Market Cap PE Ratio
Microsoft (MSFT) United States $2211.632B 36.93
Adobe (ADBE) United States $305.511B 65.84
Salesforce, Inc (CRM) United States $252.797B 75.50
Oracle (ORCL) United States $235.949B 20.37
SAP SE (SAP) Germany $170.971B 21.75
Intuit (INTU) United States $151.402B 73.92
Dassault Systemes SA (DASTY) France $78.076B 68.55
Autodesk (ADSK) United States $62.350B 104.26
VMware (VMW) United States $58.173B 27.35
Synopsys (SNPS) United States $48.999B 66.94
Cadence Design Systems (CDNS) United States $44.542B 62.38
ANSYS (ANSS) United States $31.097B 62.53
SS&C Technologies Holdings (SSNC) United States $17.702B 15.87
Nuance Communications (NUAN) United States $17.355B 153.28
PTC (PTC) United States $14.173B 49.48
Citrix Systems (CTXS) United States $13.703B 32.25
Pegasystems (PEGA) United States $10.544B 0.00
Manhattan Associates (MANH) United States $9.893B 105.43
Aspen Technology (AZPN) United States $8.430B 37.40
Trend Micro (TMICY) Japan $7.949B 29.73
Descartes Systems Group (DSGX) Canada $6.981B 99.40
MicroStrategy (MSTR) United States $5.735B 106.40
BlackBerry (BB) Canada $5.347B 235.75
Cornerstone OnDemand (CSOD) United States $3.822B 22.19
ACI Worldwide (ACIW) United States $3.617B 21.09
CommVault Systems (CVLT) United States $3.384B 87.82
Blackbaud (BLKB) United States $3.330B 56.78
Verint Systems (VRNT) United States $2.850B 20.65
Progress Software (PRGS) United States $1.970B 15.21
QAD (QADB) United States $1.826B 120.75
Bottomline Technologies (EPAY) United States $1.823B 173.70
PROS Holdings (PRO) United States $1.678B 0.00
Sapiens (SPNS) Israel $1.544B 27.63
OptimizeRx (OPRX) United States $1.248B 644.18
Avid Technology (AVID) United States $1.231B 30.68
Canaan (CAN) China $1.153B 0.00
Magic Software Enterprises (MGIC) Israel $0.978B 23.75
Simulations Plus (SLP) United States $0.809B 70.47
American Software (AMSWA) United States $0.793B 85.07
Icad Inc (ICAD) United States $0.258B 0.00
Smith Micro Software (SMSI) United States $0.245B 0.00
ServiceSource (SREV) United States $0.134B 0.00
Park City (PCYG) United States $0.103B 48.18
Neonode (NEON) Sweden $0.070B 0.00
BSQUARE (BSQR) United States $0.046B 0.00
NetSol Technologies (NTWK) United States $0.043B 17.18
GSE Systems (GVP) United States $0.027B 0.00